KFDK/FDK METAR and TAF weather

Enter ICAO airport designator
Station Type Date Time Source
KFDK METAR 2021/05/12 04:55 UTC NOAA

KFDK 120455Z AUTO 01005KT 10SM CLR 11/M02 A3024 RMK AO2


Station Type Date Time Source
KFDK Decoded METAR 2021/05/12 04:55 UTC NOAA

Frederick, Frederick Municipal Airport, MD, United States (KFDK) 39-25-03N 077-22-28W
May 12, 2021 - 12:55 AM EDT / 2021.05.12 0455 UTC
Wind: from the N (010 degrees) at 6 MPH (5 KT):0
Visibility: 10 mile(s):0
Sky conditions: clear
Temperature: 51 F (11 C)
Dew Point: 28 F (-2 C)
Relative Humidity: 40%
Pressure (altimeter): 30.24 in. Hg (1024 hPa)
ob: KFDK 120455Z AUTO 01005KT 10SM CLR 11/M02 A3024 RMK AO2
cycle: 5

Station Type Date Time Source
KFDK TAF UTC NOAA

Error!

Example: see airport list